sensor_id;sensor_type;location;lat;lon;timestamp;temperature;humidity
18281;DHT22;9266;51.132;17.062;2022-08-07T20:31:53;16.80;97.30
18281;DHT22;9266;51.132;17.062;2022-08-07T20:34:40;16.70;99.90
18281;DHT22;9266;51.132;17.062;2022-08-07T20:37:29;16.60;99.90
18281;DHT22;9266;51.132;17.062;2022-08-07T20:40:06;16.60;99.90
18281;DHT22;9266;51.132;17.062;2022-08-07T20:42:37;16.60;99.90
18281;DHT22;9266;51.132;17.062;2022-08-07T20:45:06;16.70;99.90
18281;DHT22;9266;51.132;17.062;2022-08-07T20:47:36;16.70;99.90
18281;DHT22;9266;51.132;17.062;2022-08-07T20:50:10;16.60;99.90
18281;DHT22;9266;51.132;17.062;2022-08-07T20:53:20;16.50;99.90
18281;DHT22;9266;51.132;17.062;2022-08-07T20:56:02;16.50;99.90
18281;DHT22;9266;51.132;17.062;2022-08-07T20:58:36;16.40;99.90
18281;DHT22;9266;51.132;17.062;2022-08-07T21:01:07;16.40;99.90
18281;DHT22;9266;51.132;17.062;2022-08-07T21:03:44;16.30;1.00
18281;DHT22;9266;51.132;17.062;2022-08-07T21:06:16;16.30;1.00
18281;DHT22;9266;51.132;17.062;2022-08-07T21:08:50;16.20;1.00
18281;DHT22;9266;51.132;17.062;2022-08-07T21:11:23;15.50;1.00
18281;DHT22;9266;51.132;17.062;2022-08-07T21:13:56;16.20;1.00
18281;DHT22;9266;51.132;17.062;2022-08-07T21:16:34;16.60;1.00
18281;DHT22;9266;51.132;17.062;2022-08-07T21:19:10;16.10;1.00
18281;DHT22;9266;51.132;17.062;2022-08-07T21:21:39;16.10;1.00
18281;DHT22;9266;51.132;17.062;2022-08-07T21:24:15;16.20;1.00
18281;DHT22;9266;51.132;17.062;2022-08-07T21:26:57;15.80;1.00
18281;DHT22;9266;51.132;17.062;2022-08-07T21:29:29;16.10;1.00
18281;DHT22;9266;51.132;17.062;2022-08-07T21:32:00;16.10;1.00
18281;DHT22;9266;51.132;17.062;2022-08-07T21:34:34;16.00;1.00
18281;DHT22;9266;51.132;17.062;2022-08-07T21:37:06;16.00;1.00
18281;DHT22;9266;51.132;17.062;2022-08-07T21:39:46;16.00;1.00
18281;DHT22;9266;51.132;17.062;2022-08-07T21:42:21;16.00;1.00
18281;DHT22;9266;51.132;17.062;2022-08-07T21:44:53;15.80;77.50
18281;DHT22;9266;51.132;17.062;2022-08-07T21:47:29;15.80;99.90
18281;DHT22;9266;51.132;17.062;2022-08-07T21:50:01;15.90;99.90
18281;DHT22;9266;51.132;17.062;2022-08-07T21:52:41;15.80;99.90
18281;DHT22;9266;51.132;17.062;2022-08-07T21:55:17;15.90;99.90
18281;DHT22;9266;51.132;17.062;2022-08-07T21:58:04;15.90;99.90
18281;DHT22;9266;51.132;17.062;2022-08-07T22:00:32;16.00;99.90
18281;DHT22;9266;51.132;17.062;2022-08-07T22:03:07;15.90;99.90
18281;DHT22;9266;51.132;17.062;2022-08-07T22:05:42;16.00;99.90
18281;DHT22;9266;51.132;17.062;2022-08-07T22:08:15;16.00;93.30
18281;DHT22;9266;51.132;17.062;2022-08-07T22:10:47;15.90;99.90
18281;DHT22;9266;51.132;17.062;2022-08-07T22:13:18;15.90;87.50
18281;DHT22;9266;51.132;17.062;2022-08-07T22:15:51;15.90;99.90
18281;DHT22;9266;51.132;17.062;2022-08-07T22:18:24;15.80;99.90
18281;DHT22;9266;51.132;17.062;2022-08-07T22:21:00;15.90;99.90
18281;DHT22;9266;51.132;17.062;2022-08-07T22:23:34;15.70;99.90
18281;DHT22;9266;51.132;17.062;2022-08-07T22:26:10;15.60;99.90
18281;DHT22;9266;51.132;17.062;2022-08-07T22:28:43;15.60;99.90
18281;DHT22;9266;51.132;17.062;2022-08-07T22:31:21;15.60;99.90
18281;DHT22;9266;51.132;17.062;2022-08-07T22:33:59;15.60;99.90
18281;DHT22;9266;51.132;17.062;2022-08-07T22:36:52;15.60;99.90
18281;DHT22;9266;51.132;17.062;2022-08-07T22:39:28;15.50;99.90
